createdAt,value
2022-08-30T00:01:35.365Z,5.50
2022-08-30T00:06:57.423Z,2.15
2022-08-30T00:12:21.208Z,2.70
2022-08-30T00:17:43.717Z,6.90
2022-08-30T00:23:06.201Z,2.80
2022-08-30T00:28:28.176Z,3.63
2022-08-30T00:33:49.911Z,2.17
2022-08-30T00:39:11.707Z,2.33
2022-08-30T00:44:33.986Z,3.92
2022-08-30T00:49:58.038Z,2.58
2022-08-30T00:55:20.443Z,3.40
2022-08-30T01:00:42.284Z,3.15
2022-08-30T01:06:05.466Z,2.05
2022-08-30T01:11:27.532Z,5.00
2022-08-30T01:16:50.519Z,3.00
2022-08-30T01:22:27.735Z,6.45
2022-08-30T01:27:55.498Z,2.92
2022-08-30T01:33:20.221Z,3.95
2022-08-30T01:38:57.044Z,2.33
2022-08-30T01:44:18.744Z,2.67
2022-08-30T01:49:40.704Z,3.92
2022-08-30T01:55:04.140Z,1.92
2022-08-30T02:00:25.841Z,4.43
2022-08-30T02:05:50.652Z,1.63
2022-08-30T02:11:13.384Z,1.63
2022-08-30T02:16:35.203Z,1.70
2022-08-30T02:21:57.350Z,2.65
2022-08-30T02:27:19.109Z,2.67
2022-08-30T02:32:41.682Z,2.15
2022-08-30T02:38:04.264Z,2.38
2022-08-30T02:43:27.059Z,1.83
2022-08-30T02:48:51.629Z,3.10
2022-08-30T02:54:19.794Z,2.83
2022-08-30T02:59:44.367Z,2.00
2022-08-30T03:05:07.826Z,1.97
2022-08-30T03:10:29.714Z,2.58
2022-08-30T03:15:51.887Z,1.98
2022-08-30T03:21:16.069Z,1.88
2022-08-30T03:26:37.935Z,2.70
2022-08-30T03:32:00.098Z,3.95
2022-08-30T03:37:26.886Z,2.13
2022-08-30T03:42:49.134Z,3.13
2022-08-30T03:48:11.187Z,2.88
2022-08-30T03:53:33.208Z,3.17
2022-08-30T03:58:55.016Z,1.88
2022-08-30T04:04:20.773Z,2.45
2022-08-30T04:09:43.071Z,2.67
2022-08-30T04:15:05.220Z,2.15
2022-08-30T04:20:27.532Z,2.05
2022-08-30T04:25:49.271Z,5.47
2022-08-30T04:31:16.987Z,2.40
2022-08-30T04:36:39.154Z,1.52
2022-08-30T04:42:03.379Z,2.55
2022-08-30T04:47:25.127Z,2.60
2022-08-30T04:52:47.525Z,4.40
2022-08-30T04:58:11.161Z,1.77
2022-08-30T05:03:32.847Z,1.55
2022-08-30T05:08:55.952Z,2.05
2022-08-30T05:14:17.712Z,12.63
2022-08-30T05:19:39.460Z,3.00
2022-08-30T05:25:01.222Z,10.60
2022-08-30T05:30:25.637Z,3.40
2022-08-30T05:35:47.428Z,5.50
2022-08-30T05:41:10.993Z,5.07
2022-08-30T05:51:57.154Z,2.65
2022-08-30T05:57:19.270Z,2.75
2022-08-30T06:02:42.217Z,2.20
2022-08-30T06:08:04.551Z,4.85
2022-08-30T06:13:26.239Z,3.53
2022-08-30T06:18:48.777Z,5.05
2022-08-30T06:24:11.644Z,3.80
2022-08-30T06:29:33.370Z,4.95
2022-08-30T06:34:55.107Z,7.00
2022-08-30T06:40:18.486Z,9.05
2022-08-30T06:45:40.376Z,4.18
2022-08-30T06:51:02.251Z,3.92
2022-08-30T06:56:28.084Z,8.18
2022-08-30T07:01:53.035Z,3.00
2022-08-30T07:07:15.165Z,6.68
2022-08-30T07:12:36.922Z,2.78
2022-08-30T07:18:17.294Z,5.38
2022-08-30T07:23:39.308Z,6.78
2022-08-30T07:29:02.016Z,6.28
2022-08-30T07:34:26.983Z,3.20
2022-08-30T07:39:49.197Z,5.60
2022-08-30T07:45:11.770Z,6.18
2022-08-30T07:50:34.133Z,5.95
2022-08-30T07:55:55.869Z,3.58
2022-08-30T08:01:19.167Z,2.88
2022-08-30T08:06:41.634Z,2.17
2022-08-30T08:12:08.230Z,3.08
2022-08-30T08:17:29.976Z,4.32
2022-08-30T08:22:52.135Z,2.05
2022-08-30T08:28:14.274Z,2.97
2022-08-30T08:33:36.237Z,3.53
2022-08-30T08:38:58.402Z,4.22
2022-08-30T08:44:34.626Z,4.65
2022-08-30T08:50:01.365Z,2.75
2022-08-30T08:55:24.400Z,8.43
2022-08-30T09:00:46.128Z,5.43
2022-08-30T09:06:30.619Z,4.47
2022-08-30T09:11:52.428Z,4.75
2022-08-30T09:17:17.222Z,3.45
2022-08-30T09:22:43.801Z,1.70
2022-08-30T09:28:12.935Z,2.00
2022-08-30T09:33:37.233Z,5.35
2022-08-30T09:39:14.734Z,2.92
2022-08-30T09:44:38.786Z,2.33
2022-08-30T09:50:20.019Z,2.00
2022-08-30T09:56:06.508Z,6.05
2022-08-30T10:01:41.056Z,3.67
2022-08-30T10:07:13.646Z,3.58
2022-08-30T10:12:39.818Z,1.20
2022-08-30T10:18:06.081Z,3.53
2022-08-30T10:23:36.519Z,1.42
2022-08-30T10:29:06.871Z,3.80
2022-08-30T10:35:08.098Z,7.25
2022-08-30T10:40:50.297Z,2.15
2022-08-30T10:46:31.311Z,7.65
2022-08-30T10:52:12.514Z,7.63
2022-08-30T10:57:34.703Z,16.85
2022-08-30T11:03:14.870Z,15.77
2022-08-30T11:08:45.588Z,11.05
2022-08-30T11:14:13.479Z,11.02
2022-08-30T11:19:44.264Z,12.77
2022-08-30T11:25:11.608Z,10.43
2022-08-30T11:30:33.552Z,11.90
2022-08-30T11:42:14.048Z,5.60
2022-08-30T11:47:41.314Z,8.95
2022-08-30T11:53:11.522Z,11.55
2022-08-30T11:58:52.075Z,18.52
2022-08-30T12:04:28.651Z,13.95
2022-08-30T12:09:50.700Z,24.20
2022-08-30T12:16:02.801Z,31.98
2022-08-30T12:21:41.044Z,16.77
2022-08-30T12:27:24.971Z,10.90
2022-08-30T12:32:50.780Z,9.68
2022-08-30T12:38:18.643Z,11.80
2022-08-30T12:43:50.514Z,12.85
2022-08-30T12:49:16.208Z,10.60
2022-08-30T12:54:40.530Z,7.53
2022-08-30T13:00:10.585Z,8.75
2022-08-30T13:05:45.777Z,5.95
2022-08-30T13:11:25.057Z,6.68
2022-08-30T13:16:51.080Z,4.60
2022-08-30T13:22:24.903Z,5.72
2022-08-30T13:27:48.820Z,3.40
2022-08-30T13:33:11.731Z,3.65
2022-08-30T13:38:33.490Z,8.52
2022-08-30T13:44:14.132Z,4.00
2022-08-30T13:49:46.883Z,7.47
2022-08-30T13:55:09.493Z,4.43
2022-08-30T14:00:37.454Z,5.25
2022-08-30T14:06:29.247Z,7.90
2022-08-30T14:11:42.108Z,5.00
2022-08-30T14:17:03.916Z,3.72
2022-08-30T14:22:25.672Z,8.27
2022-08-30T14:27:48.066Z,3.85
2022-08-30T14:33:09.845Z,7.38
2022-08-30T14:38:32.025Z,4.35
2022-08-30T14:43:53.804Z,4.38
2022-08-30T14:49:16.673Z,5.95
2022-08-30T14:54:38.573Z,6.88
2022-08-30T15:00:00.349Z,3.60
2022-08-30T15:05:22.061Z,3.55
2022-08-30T15:10:44.391Z,3.17
2022-08-30T15:16:31.873Z,6.35
2022-08-30T15:21:53.809Z,8.52
2022-08-30T15:27:15.539Z,8.07
2022-08-30T15:32:37.227Z,4.90
2022-08-30T15:37:58.951Z,11.25
2022-08-30T15:43:20.820Z,6.20
2022-08-30T15:48:45.601Z,11.07
2022-08-30T15:54:07.768Z,5.05
2022-08-30T15:59:30.679Z,9.85
2022-08-30T16:04:52.758Z,11.68
2022-08-30T16:10:15.167Z,11.23
2022-08-30T16:15:40.115Z,15.32
2022-08-30T16:21:10.559Z,7.32
2022-08-30T16:26:35.718Z,7.05
2022-08-30T16:31:57.691Z,7.22
2022-08-30T16:37:19.414Z,6.22
2022-08-30T16:42:41.718Z,6.90
2022-08-30T16:48:04.117Z,6.50
2022-08-30T16:53:26.760Z,5.03
2022-08-30T16:58:49.271Z,11.18
2022-08-30T17:04:15.739Z,4.72
2022-08-30T17:09:40.006Z,4.10
2022-08-30T17:15:02.697Z,12.07
2022-08-30T17:20:31.215Z,6.85
2022-08-30T17:25:57.017Z,10.73
2022-08-30T17:31:18.812Z,7.38
2022-08-30T17:36:41.903Z,7.78
2022-08-30T17:42:05.406Z,3.17
2022-08-30T17:47:27.357Z,7.70
2022-08-30T17:52:50.390Z,4.20
2022-08-30T17:58:12.131Z,2.75
2022-08-30T18:03:34.035Z,6.63
2022-08-30T18:08:55.860Z,5.53
2022-08-30T18:14:18.745Z,2.17
2022-08-30T18:19:46.107Z,3.15
2022-08-30T18:25:09.476Z,5.43
2022-08-30T18:30:34.698Z,3.00
2022-08-30T18:36:02.031Z,5.07
2022-08-30T18:41:23.742Z,4.97
2022-08-30T18:46:56.175Z,5.70
2022-08-30T18:52:18.713Z,5.63
2022-08-30T18:57:40.541Z,3.55
2022-08-30T19:03:03.003Z,2.50
2022-08-30T19:08:24.718Z,7.88
2022-08-30T19:13:46.478Z,4.03
2022-08-30T19:19:10.219Z,3.97
2022-08-30T19:24:35.243Z,2.85
2022-08-30T19:29:57.473Z,1.90
2022-08-30T19:35:20.393Z,3.58
2022-08-30T19:40:42.166Z,1.83
2022-08-30T19:46:07.196Z,3.08
2022-08-30T19:51:30.065Z,1.45
2022-08-30T19:56:53.195Z,1.95
2022-08-30T20:02:15.142Z,1.42
2022-08-30T20:07:37.747Z,3.42
2022-08-30T20:12:59.513Z,1.25
2022-08-30T20:18:21.256Z,1.83
2022-08-30T20:23:43.736Z,3.97
2022-08-30T20:29:07.580Z,1.55
2022-08-30T20:34:29.283Z,1.63
2022-08-30T20:39:51.374Z,2.13
2022-08-30T20:45:15.493Z,3.55
2022-08-30T20:50:38.998Z,1.38
2022-08-30T20:56:00.996Z,1.75
2022-08-30T21:01:23.663Z,2.15
2022-08-30T21:06:45.701Z,6.22
2022-08-30T21:12:07.626Z,8.77
2022-08-30T21:17:30.392Z,3.28
2022-08-30T21:22:52.280Z,3.08
2022-08-30T21:28:14.011Z,2.50
2022-08-30T21:33:39.008Z,5.95
2022-08-30T21:39:01.146Z,3.08
2022-08-30T21:44:26.559Z,3.50
2022-08-30T21:49:48.292Z,1.90
2022-08-30T21:55:10.161Z,1.98
2022-08-30T22:00:33.749Z,2.33
2022-08-30T22:05:55.458Z,2.03
2022-08-30T22:11:21.910Z,2.47
2022-08-30T22:16:44.082Z,1.67
2022-08-30T22:22:06.185Z,2.17
2022-08-30T22:27:27.934Z,1.77
2022-08-30T22:32:49.826Z,1.80
2022-08-30T22:38:14.692Z,3.05
2022-08-30T22:43:36.611Z,2.97
2022-08-30T22:48:58.378Z,1.10
2022-08-30T22:54:20.157Z,0.52
2022-08-30T22:59:42.474Z,4.15
2022-08-30T23:05:05.193Z,0.88
2022-08-30T23:10:28.356Z,1.05
2022-08-30T23:15:50.100Z,1.65
2022-08-30T23:21:20.954Z,0.80
2022-08-30T23:27:03.105Z,3.28
2022-08-30T23:32:43.472Z,1.23
2022-08-30T23:38:24.550Z,1.23
2022-08-30T23:44:05.091Z,1.35
2022-08-30T23:49:45.220Z,0.73
2022-08-30T23:55:26.199Z,1.10
